Tongaat, South Africa
Current Conditions -  °F | °C
As of 11:00 AM on Wednesday 26 Nov 2014 (Local Time) from FALE Reporting Station
Broken Clouds Broken Clouds  
Wind Chill: 73°   Ceiling: 2900
Heat Index: 73°   Visibility: 6mi
Dew Point: 63°   Wind: 13mph
Humidity: 69%   Direction: 60°ENE
Pressure: 30.03"   Gusts: NA
Location:  29.58°S, 31.12°E
Report Text: FALE 260900Z 06011KT 030V090 9999 SCT023 BKN029 23/17 Q1017 NOSIG
Loading
Personal Weather Stations






























Interactive Weather Map New forecast layout! Learn more

10-Day Weather Forecast

Advertisements
Track Severe Weather on mobile